Main page
METAR-TAF:

METAR-TAF

Airports :

Stornoway Airport

Stornoway, Scotland

latitude: 58-13N, longitude: 006-19W, elevation: 9 m

Current weather observation

The report was made 42 minutes ago, at 07:20 UTC
Wind 8 kt from the Northwest
Temperature 5°C
Humidity 75%
Pressure 1013 hPa
Visibility 10 km or more

METAR: EGPO 200720Z AUTO 31008KT 9999 SCT034/// OVC041/// 05/01 Q1013

Time: 08:02 (08:02 UTC)

Forecast

The report was made 3 hours and 8 minutes ago, at 04:54 UTC
Forecast valid from 20 at 06 UTC to 20 at 15 UTC
Wind 12 kt from the West/Northwest
Visibility 10 km or more
Scattered clouds at a height of 2500 ft
Temporary
from 20 at 06 UTC to 20 at 15 UTC
Wind 15 kt from the West/Northwest with gusts up to 25 kt

TAF: EGPO 200454Z 2006/2015 29012KT 9999 SCT025 TEMPO 2006/2015 30015G25KT

Weather observations and forecasts of more than 4000 airports (METAR and TAF reports).

The available stations are represented by yellow and red dots on the map.

Hover mouse over dot to see the name of the station.

Then click to see weather observations and forecasts.

To change the map : click on the green buttons with a black cross to zoom in, on the green button with a dash to zoom out, or on the green arrows for adjacent maps.


METAR-TAF: